createdAt,value
2023-04-04T00:01:22.052Z,11.20
2023-04-04T00:04:01.523Z,10.32
2023-04-04T00:06:33.145Z,11.38
2023-04-04T00:09:10.149Z,9.75
2023-04-04T00:11:42.246Z,11.65
2023-04-04T00:14:15.340Z,8.27
2023-04-04T00:16:51.500Z,13.15
2023-04-04T00:19:23.969Z,7.85
2023-04-04T00:21:53.990Z,9.88
2023-04-04T00:24:26.824Z,8.98
2023-04-04T00:26:57.702Z,10.52
2023-04-04T00:29:27.604Z,7.63
2023-04-04T00:31:57.821Z,8.73
2023-04-04T00:34:30.743Z,8.77
2023-04-04T00:37:00.959Z,9.30
2023-04-04T00:39:30.859Z,5.25
2023-04-04T00:42:03.785Z,11.82
2023-04-04T00:44:34.347Z,8.35
2023-04-04T00:47:05.701Z,10.43
2023-04-04T00:49:38.950Z,13.65
2023-04-04T00:52:09.302Z,11.93
2023-04-04T00:54:39.452Z,11.65
2023-04-04T00:57:11.027Z,11.85
2023-04-04T00:59:41.366Z,10.75
2023-04-04T01:02:11.309Z,9.50
2023-04-04T01:04:41.984Z,12.80
2023-04-04T01:07:12.493Z,14.45
2023-04-04T01:09:43.241Z,8.95
2023-04-04T01:12:13.613Z,13.52
2023-04-04T01:14:43.438Z,9.30
2023-04-04T01:17:13.483Z,11.88
2023-04-04T01:20:14.392Z,10.77
2023-04-04T01:22:58.356Z,11.50
2023-04-04T01:25:35.889Z,9.35
2023-04-04T01:28:13.249Z,15.02
2023-04-04T01:30:46.911Z,10.73
2023-04-04T01:33:25.104Z,11.45
2023-04-04T01:36:05.068Z,16.10
2023-04-04T01:38:41.011Z,16.00
2023-04-04T01:41:13.409Z,13.45
2023-04-04T01:43:49.204Z,11.32
2023-04-04T01:46:19.984Z,11.93
2023-04-04T01:48:51.578Z,12.43
2023-04-04T01:51:26.130Z,15.25
2023-04-04T01:53:57.497Z,9.20
2023-04-04T01:56:27.862Z,13.23
2023-04-04T01:58:58.015Z,10.80
2023-04-04T02:01:27.875Z,12.95
2023-04-04T02:03:57.983Z,13.48
2023-04-04T02:06:27.761Z,11.05
2023-04-04T02:08:57.619Z,14.23
2023-04-04T02:11:28.288Z,13.90
2023-04-04T02:13:58.437Z,11.98
2023-04-04T02:16:29.487Z,10.07
2023-04-04T02:18:59.504Z,12.70
2023-04-04T02:21:29.132Z,9.50
2023-04-04T02:23:58.900Z,14.57
2023-04-04T02:26:28.884Z,12.23
2023-04-04T02:28:58.735Z,11.35
2023-04-04T02:31:28.649Z,16.55
2023-04-04T02:33:59.264Z,10.77
2023-04-04T02:36:30.124Z,15.25
2023-04-04T02:39:02.201Z,11.82
2023-04-04T02:41:33.506Z,12.70
2023-04-04T02:44:05.027Z,9.95
2023-04-04T02:46:35.446Z,12.52
2023-04-04T02:49:08.667Z,12.13
2023-04-04T02:51:41.698Z,8.70
2023-04-04T02:54:12.807Z,15.00
2023-04-04T02:56:46.580Z,14.27
2023-04-04T02:59:16.690Z,15.70
2023-04-04T03:01:46.428Z,14.32
2023-04-04T03:04:17.190Z,16.20
2023-04-04T03:06:49.632Z,12.73
2023-04-04T03:09:19.881Z,12.75
2023-04-04T03:11:51.139Z,11.95
2023-04-04T03:14:21.035Z,10.10
2023-04-04T03:16:51.698Z,11.50
2023-04-04T03:19:21.584Z,13.48
2023-04-04T03:21:53.617Z,10.00
2023-04-04T03:24:24.746Z,15.35
2023-04-04T03:26:54.753Z,10.57
2023-04-04T03:29:25.589Z,10.82
2023-04-04T03:31:56.797Z,12.02
2023-04-04T03:34:27.215Z,10.77
2023-04-04T03:36:59.045Z,11.20
2023-04-04T03:39:32.460Z,10.57
2023-04-04T03:42:04.877Z,10.00
2023-04-04T03:44:38.346Z,9.32
2023-04-04T03:47:11.413Z,12.90
2023-04-04T03:49:42.593Z,9.60
2023-04-04T03:52:14.982Z,15.25
2023-04-04T03:54:45.641Z,13.57
2023-04-04T03:57:18.965Z,14.25
2023-04-04T03:59:50.099Z,10.95
2023-04-04T04:02:23.821Z,9.50
2023-04-04T04:04:55.167Z,10.27
2023-04-04T04:07:30.407Z,8.55
2023-04-04T04:10:02.261Z,11.75
2023-04-04T04:12:34.548Z,9.18
2023-04-04T04:15:06.681Z,9.98
2023-04-04T04:17:42.403Z,13.43
2023-04-04T04:20:21.678Z,9.68
2023-04-04T04:22:55.972Z,13.23
2023-04-04T04:25:28.904Z,10.45
2023-04-04T04:28:33.878Z,10.32
2023-04-04T04:31:12.209Z,10.35
2023-04-04T04:33:50.938Z,8.48
2023-04-04T04:36:24.456Z,6.63
2023-04-04T04:39:12.846Z,13.98
2023-04-04T04:41:53.019Z,9.73
2023-04-04T04:46:57.078Z,8.00
2023-04-04T04:49:27.832Z,10.48
2023-04-04T04:51:58.281Z,12.25
2023-04-04T04:54:28.392Z,11.20
2023-04-04T04:56:58.567Z,9.50
2023-04-04T04:59:28.900Z,7.53
2023-04-04T05:01:59.704Z,6.88
2023-04-04T05:04:29.728Z,13.43
2023-04-04T05:07:04.316Z,7.70
2023-04-04T05:09:35.273Z,10.88
2023-04-04T05:12:06.197Z,9.68
2023-04-04T05:14:43.554Z,13.60
2023-04-04T05:17:13.420Z,6.88
2023-04-04T05:19:44.494Z,8.65
2023-04-04T05:22:18.533Z,8.57
2023-04-04T05:24:53.661Z,6.85
2023-04-04T05:27:27.424Z,8.00
2023-04-04T05:30:01.331Z,8.35
2023-04-04T05:32:40.776Z,7.93
2023-04-04T05:35:18.201Z,8.38
2023-04-04T05:37:49.299Z,9.88
2023-04-04T05:40:21.533Z,10.00
2023-04-04T05:43:03.236Z,10.05
2023-04-04T05:45:41.433Z,10.77
2023-04-04T05:48:12.423Z,10.35
2023-04-04T05:50:50.911Z,9.75
2023-04-04T05:53:26.284Z,10.95
2023-04-04T05:55:59.812Z,9.27
2023-04-04T05:58:33.308Z,12.48
2023-04-04T06:01:13.844Z,10.50
2023-04-04T06:03:43.833Z,9.73
2023-04-04T06:06:17.100Z,11.32
2023-04-04T06:08:53.584Z,12.15
2023-04-04T06:11:24.237Z,10.77
2023-04-04T06:13:56.947Z,11.20
2023-04-04T06:16:28.138Z,7.57
2023-04-04T06:18:58.295Z,9.30
2023-04-04T06:21:29.040Z,10.95
2023-04-04T06:23:59.004Z,7.95
2023-04-04T06:26:28.879Z,16.15
2023-04-04T06:29:00.213Z,9.90
2023-04-04T06:31:34.057Z,9.75
2023-04-04T06:34:12.356Z,9.23
2023-04-04T06:36:55.505Z,11.27
2023-04-04T06:39:29.835Z,10.45
2023-04-04T06:42:02.718Z,11.15
2023-04-04T06:44:35.557Z,9.55
2023-04-04T06:47:05.512Z,9.02
2023-04-04T06:49:36.278Z,11.65
2023-04-04T06:52:07.548Z,11.48
2023-04-04T06:54:37.989Z,12.43
2023-04-04T06:57:07.981Z,9.95
2023-04-04T06:59:37.847Z,11.80
2023-04-04T07:02:08.599Z,8.13
2023-04-04T07:04:40.848Z,8.77
2023-04-04T07:07:13.016Z,9.35
2023-04-04T07:09:43.625Z,9.20
2023-04-04T07:12:13.735Z,12.38
2023-04-04T07:14:43.900Z,12.98
2023-04-04T07:17:23.748Z,10.38
2023-04-04T07:19:55.534Z,14.65
2023-04-04T07:22:25.465Z,10.23
2023-04-04T07:24:55.812Z,10.00
2023-04-04T07:27:25.916Z,16.10
2023-04-04T07:29:55.642Z,16.05
2023-04-04T07:32:26.409Z,11.55
2023-04-04T07:34:56.724Z,13.15
2023-04-04T07:37:28.908Z,11.60
2023-04-04T07:42:29.063Z,11.93
2023-04-04T07:44:58.925Z,12.10
2023-04-04T07:47:29.576Z,13.82
2023-04-04T07:49:59.493Z,12.90
2023-04-04T07:52:29.130Z,12.63
2023-04-04T07:54:58.874Z,11.95
2023-04-04T07:57:28.732Z,18.08
2023-04-04T07:59:58.378Z,12.25
2023-04-04T08:02:28.353Z,13.95
2023-04-04T08:04:58.249Z,16.70
2023-04-04T08:07:29.996Z,16.23
2023-04-04T08:12:29.787Z,16.33
2023-04-04T08:14:59.680Z,10.98
2023-04-04T08:17:30.152Z,14.48
2023-04-04T08:20:00.158Z,14.85
2023-04-04T08:22:30.086Z,16.20
2023-04-04T08:25:00.116Z,15.98
2023-04-04T08:27:30.046Z,18.85
2023-04-04T08:29:59.920Z,16.17
2023-04-04T08:32:29.632Z,16.42
2023-04-04T08:35:00.396Z,12.88
2023-04-04T08:37:30.803Z,13.18
2023-04-04T08:40:01.795Z,15.30
2023-04-04T08:42:36.998Z,9.70
2023-04-04T08:45:10.637Z,11.57
2023-04-04T08:47:41.388Z,25.27
2023-04-04T08:52:44.520Z,12.57
2023-04-04T08:55:15.294Z,12.48
2023-04-04T08:57:45.475Z,10.77
2023-04-04T09:00:18.197Z,11.02
2023-04-04T09:02:58.891Z,14.63
2023-04-04T09:05:30.652Z,12.88
2023-04-04T09:08:01.017Z,10.07
2023-04-04T09:10:31.152Z,12.85
2023-04-04T09:13:12.539Z,15.68
2023-04-04T09:15:49.564Z,12.35
2023-04-04T09:18:21.237Z,12.55
2023-04-04T09:20:53.015Z,9.20
2023-04-04T09:23:24.780Z,13.75
2023-04-04T09:28:29.974Z,9.90
2023-04-04T09:31:04.184Z,11.50
2023-04-04T09:33:35.129Z,10.82
2023-04-04T09:36:16.528Z,8.88
2023-04-04T09:38:49.964Z,10.82
2023-04-04T09:43:50.617Z,10.98
2023-04-04T09:46:23.415Z,12.68
2023-04-04T09:48:56.404Z,11.82
2023-04-04T09:51:26.295Z,9.32
2023-04-04T09:53:59.836Z,7.72
2023-04-04T09:56:30.750Z,11.25
2023-04-04T10:01:35.936Z,14.15
2023-04-04T10:04:07.439Z,15.98
2023-04-04T10:06:39.672Z,15.13
2023-04-04T10:09:10.485Z,11.60
2023-04-04T10:11:41.010Z,13.63
2023-04-04T10:14:11.341Z,11.98
2023-04-04T10:16:47.030Z,15.52
2023-04-04T10:19:20.320Z,16.58
2023-04-04T10:21:50.450Z,12.52
2023-04-04T10:24:20.712Z,11.88
2023-04-04T10:26:50.584Z,15.75
2023-04-04T10:29:20.743Z,13.32
2023-04-04T10:31:59.549Z,16.42
2023-04-04T10:34:46.284Z,15.98
2023-04-04T10:37:21.927Z,14.52
2023-04-04T10:40:03.394Z,13.77
2023-04-04T10:42:42.032Z,11.68
2023-04-04T10:45:21.200Z,13.65
2023-04-04T10:47:53.319Z,18.85
2023-04-04T10:50:23.469Z,12.25
2023-04-04T10:52:54.656Z,17.90
2023-04-04T10:55:25.736Z,20.48
2023-04-04T10:57:57.091Z,24.13
2023-04-04T11:00:27.517Z,21.27
2023-04-04T11:03:03.008Z,18.75
2023-04-04T11:05:35.420Z,16.77
2023-04-04T11:08:15.142Z,18.98
2023-04-04T11:10:46.987Z,16.65
2023-04-04T11:13:26.768Z,18.15
2023-04-04T11:16:16.443Z,17.20
2023-04-04T11:18:46.670Z,16.23
2023-04-04T11:21:21.359Z,16.85
2023-04-04T11:23:51.355Z,14.38
2023-04-04T11:26:37.089Z,10.63
2023-04-04T11:29:10.524Z,12.77
2023-04-04T11:31:46.496Z,9.60
2023-04-04T11:34:31.270Z,15.35
2023-04-04T11:37:16.629Z,12.88
2023-04-04T11:40:00.265Z,22.80
2023-04-04T11:42:39.892Z,12.82
2023-04-04T11:45:11.449Z,14.38
2023-04-04T11:47:43.487Z,9.68
2023-04-04T11:50:16.453Z,12.75
2023-04-04T11:52:47.449Z,11.55
2023-04-04T11:55:21.146Z,14.25
2023-04-04T11:57:52.620Z,15.82
2023-04-04T12:00:40.203Z,14.82
2023-04-04T12:03:12.914Z,10.68
2023-04-04T12:05:45.341Z,23.00
2023-04-04T12:08:16.968Z,17.58
2023-04-04T12:10:48.119Z,13.27
2023-04-04T12:13:18.525Z,13.93
2023-04-04T12:15:50.747Z,8.68
2023-04-04T12:18:23.884Z,13.20
2023-04-04T12:20:54.341Z,11.98
2023-04-04T12:23:24.736Z,13.52
2023-04-04T12:25:57.087Z,9.02
2023-04-04T12:30:58.572Z,9.30
2023-04-04T12:33:28.632Z,78.25
2023-04-04T12:35:58.627Z,15.63
2023-04-04T12:38:29.347Z,22.95
2023-04-04T12:40:59.857Z,11.02
2023-04-04T12:43:31.526Z,17.00
2023-04-04T12:46:01.541Z,11.38
2023-04-04T12:48:35.456Z,15.30
2023-04-04T12:53:51.573Z,10.57
2023-04-04T12:56:21.855Z,7.88
2023-04-04T12:58:52.704Z,10.15
2023-04-04T13:01:23.392Z,9.80
2023-04-04T13:03:54.206Z,8.60
2023-04-04T13:06:24.190Z,6.80
2023-04-04T13:08:55.432Z,6.35
2023-04-04T13:11:25.984Z,9.02
2023-04-04T13:14:03.869Z,8.60
2023-04-04T13:16:38.270Z,8.77
2023-04-04T13:19:08.584Z,9.27
2023-04-04T13:21:41.026Z,14.50
2023-04-04T13:24:11.491Z,13.95
2023-04-04T13:26:42.281Z,9.00
2023-04-04T13:29:12.438Z,12.98
2023-04-04T13:31:43.917Z,9.32
2023-04-04T13:34:14.352Z,11.13
2023-04-04T13:36:45.525Z,12.18
2023-04-04T13:39:15.661Z,9.13
2023-04-04T13:41:46.048Z,13.85
2023-04-04T13:44:17.784Z,11.85
2023-04-04T13:49:17.636Z,9.18
2023-04-04T13:51:49.457Z,12.07
2023-04-04T13:54:20.033Z,12.07
2023-04-04T13:56:50.518Z,11.35
2023-04-04T13:59:20.697Z,16.90
2023-04-04T14:01:51.468Z,12.60
2023-04-04T14:04:24.148Z,9.43
2023-04-04T14:06:54.696Z,13.85
2023-04-04T14:09:25.077Z,15.95
2023-04-04T14:11:56.197Z,13.18
2023-04-04T14:14:26.800Z,9.45
2023-04-04T14:16:57.584Z,10.32
2023-04-04T14:19:28.178Z,8.23
2023-04-04T14:21:59.227Z,11.73
2023-04-04T14:24:29.898Z,6.63
2023-04-04T14:27:02.768Z,7.38
2023-04-04T14:29:33.036Z,8.88
2023-04-04T14:32:03.371Z,5.53
2023-04-04T14:34:35.038Z,4.63
2023-04-04T14:37:06.525Z,2.53
2023-04-04T14:39:37.221Z,4.40
2023-04-04T14:42:11.652Z,2.42
2023-04-04T14:44:44.409Z,5.63
2023-04-04T14:47:15.410Z,3.65
2023-04-04T14:49:46.935Z,1.55
2023-04-04T14:52:17.885Z,0.88
2023-04-04T14:54:50.175Z,2.30
2023-04-04T14:57:21.747Z,2.25
2023-04-04T14:59:54.638Z,1.30
2023-04-04T15:02:25.520Z,3.40
2023-04-04T15:04:59.188Z,1.13
2023-04-04T15:10:18.990Z,1.27
2023-04-04T15:15:26.810Z,1.88
2023-04-04T15:17:59.833Z,0.63
2023-04-04T15:20:30.550Z,3.55
2023-04-04T15:23:02.611Z,1.15
2023-04-04T15:25:38.206Z,7.15
2023-04-04T15:28:09.632Z,8.35
2023-04-04T15:30:41.818Z,3.00
2023-04-04T15:33:14.950Z,4.88
2023-04-04T15:35:48.389Z,1.60
2023-04-04T15:38:21.505Z,3.20
2023-04-04T15:40:54.334Z,2.83
2023-04-04T15:43:27.359Z,1.05
2023-04-04T15:45:59.125Z,4.30
2023-04-04T15:48:30.938Z,0.88
2023-04-04T15:51:05.142Z,1.40
2023-04-04T15:53:36.467Z,2.88
2023-04-04T15:56:09.481Z,2.22
2023-04-04T15:58:40.980Z,1.15
2023-04-04T16:01:12.194Z,1.98
2023-04-04T16:03:46.579Z,3.92
2023-04-04T16:06:19.208Z,3.17
2023-04-04T16:08:51.123Z,4.68
2023-04-04T16:11:23.669Z,1.40
2023-04-04T16:13:56.360Z,1.40
2023-04-04T16:16:28.929Z,1.83
2023-04-04T16:19:04.166Z,1.58
2023-04-04T16:21:39.046Z,2.90
2023-04-04T16:24:16.027Z,1.90
2023-04-04T16:26:52.231Z,2.38
2023-04-04T16:29:26.317Z,2.28
2023-04-04T16:31:59.879Z,1.60
2023-04-04T16:34:32.102Z,1.00
2023-04-04T16:37:03.330Z,2.13
2023-04-04T16:42:08.540Z,2.35
2023-04-04T16:44:44.126Z,0.77
2023-04-04T16:47:17.912Z,4.10
2023-04-04T16:49:51.090Z,1.50
2023-04-04T16:52:24.252Z,1.48
2023-04-04T16:54:57.396Z,2.13
2023-04-04T17:00:01.275Z,2.25
2023-04-04T17:02:39.980Z,3.05
2023-04-04T17:05:12.172Z,3.95
2023-04-04T17:07:45.143Z,1.75
2023-04-04T17:10:17.324Z,3.30
2023-04-04T17:12:49.243Z,1.67
2023-04-04T17:15:24.714Z,1.27
2023-04-04T17:17:56.852Z,1.30
2023-04-04T17:20:30.230Z,1.20
2023-04-04T17:23:03.712Z,1.98
2023-04-04T17:25:35.222Z,2.75
2023-04-04T17:28:08.955Z,2.00
2023-04-04T17:30:44.272Z,1.02
2023-04-04T17:33:19.265Z,1.15
2023-04-04T17:35:50.927Z,1.23
2023-04-04T17:38:24.230Z,1.63
2023-04-04T17:40:59.231Z,2.20
2023-04-04T17:43:33.127Z,2.45
2023-04-04T17:46:07.767Z,1.77
2023-04-04T17:48:39.357Z,2.28
2023-04-04T17:51:14.845Z,2.15
2023-04-04T17:53:47.480Z,1.88
2023-04-04T17:56:18.821Z,1.30
2023-04-04T17:58:53.133Z,3.10
2023-04-04T18:01:29.118Z,2.03
2023-04-04T18:04:00.506Z,1.98
2023-04-04T18:06:35.176Z,1.52
2023-04-04T18:09:07.165Z,4.15
2023-04-04T18:11:41.642Z,2.65
2023-04-04T18:14:15.658Z,2.35
2023-04-04T18:16:47.756Z,1.27
2023-04-04T18:19:19.832Z,2.33
2023-04-04T18:21:52.760Z,2.03
2023-04-04T18:24:26.310Z,2.22
2023-04-04T18:27:01.074Z,1.60
2023-04-04T18:29:35.057Z,4.82
2023-04-04T18:32:07.397Z,3.20
2023-04-04T18:34:40.556Z,1.67
2023-04-04T18:37:15.142Z,1.60
2023-04-04T18:39:46.783Z,2.78
2023-04-04T18:42:19.112Z,4.85
2023-04-04T18:47:27.545Z,3.33
2023-04-04T18:50:01.518Z,3.15
2023-04-04T18:52:33.844Z,3.50
2023-04-04T18:55:08.669Z,7.10
2023-04-04T18:57:41.245Z,3.85
2023-04-04T19:00:15.848Z,10.75
2023-04-04T19:02:51.614Z,9.85
2023-04-04T19:05:28.598Z,3.55
2023-04-04T19:08:05.465Z,3.88
2023-04-04T19:10:40.860Z,9.80
2023-04-04T19:13:20.121Z,4.07
2023-04-04T19:16:12.000Z,4.47
2023-04-04T19:18:46.894Z,3.85
2023-04-04T19:21:18.996Z,4.20
2023-04-04T19:23:51.767Z,6.90
2023-04-04T19:26:29.977Z,4.70
2023-04-04T19:29:02.385Z,3.60
2023-04-04T19:31:39.279Z,4.53
2023-04-04T19:34:37.620Z,5.30
2023-04-04T19:37:13.143Z,6.40
2023-04-04T19:40:18.996Z,3.65
2023-04-04T19:43:01.470Z,6.95
2023-04-04T19:45:59.286Z,4.85
2023-04-04T19:49:02.035Z,4.47
2023-04-04T19:51:45.572Z,3.85
2023-04-04T19:54:36.129Z,3.20
2023-04-04T19:57:19.845Z,6.13
2023-04-04T20:06:38.342Z,3.40
2023-04-04T20:09:37.456Z,4.28
2023-04-04T20:12:45.956Z,5.25
2023-04-04T20:15:55.315Z,4.25
2023-04-04T20:18:26.948Z,6.43
2023-04-04T20:21:04.433Z,3.58
2023-04-04T20:24:01.463Z,7.80
2023-04-04T20:26:37.646Z,5.88
2023-04-04T20:29:13.280Z,6.80
2023-04-04T20:31:58.874Z,7.18
2023-04-04T20:34:42.832Z,8.07
2023-04-04T20:37:27.438Z,5.13
2023-04-04T20:40:04.139Z,7.85
2023-04-04T20:42:39.561Z,5.38
2023-04-04T20:45:15.110Z,8.02
2023-04-04T20:47:49.929Z,11.27
2023-04-04T20:50:22.617Z,8.75
2023-04-04T20:53:06.524Z,9.43
2023-04-04T20:55:37.220Z,8.60
2023-04-04T20:58:21.273Z,7.40
2023-04-04T21:00:51.840Z,4.60
2023-04-04T21:03:30.254Z,7.43
2023-04-04T21:08:51.724Z,5.82
2023-04-04T21:11:32.030Z,7.00
2023-04-04T21:14:02.026Z,6.10
2023-04-04T21:16:32.001Z,5.53
2023-04-04T21:19:03.105Z,9.38
2023-04-04T21:21:33.113Z,11.15
2023-04-04T21:24:03.083Z,6.20
2023-04-04T21:26:38.029Z,9.57
2023-04-04T21:29:09.197Z,11.75
2023-04-04T21:31:41.757Z,11.38
2023-04-04T21:34:23.072Z,11.20
2023-04-04T21:37:01.086Z,15.25
2023-04-04T21:39:32.267Z,15.02
2023-04-04T21:42:08.600Z,13.02
2023-04-04T21:44:39.827Z,15.02
2023-04-04T21:47:09.627Z,12.43
2023-04-04T21:49:39.269Z,12.05
2023-04-04T21:52:09.291Z,18.38
2023-04-04T21:54:38.856Z,11.27
2023-04-04T21:57:08.739Z,11.57
2023-04-04T21:59:38.387Z,10.25
2023-04-04T22:02:08.121Z,15.80
2023-04-04T22:04:38.048Z,11.05
2023-04-04T22:07:08.042Z,12.60
2023-04-04T22:09:39.816Z,14.38
2023-04-04T22:14:51.703Z,8.23
2023-04-04T22:17:24.501Z,11.20
2023-04-04T22:20:00.483Z,22.17
2023-04-04T22:22:33.733Z,29.05
2023-04-04T22:25:08.240Z,30.45
2023-04-04T22:27:40.825Z,17.83
2023-04-04T22:30:11.986Z,14.02
2023-04-04T22:32:44.996Z,12.73
2023-04-04T22:35:15.256Z,29.83
2023-04-04T22:37:47.197Z,17.52
2023-04-04T22:40:17.082Z,12.25
2023-04-04T22:42:47.688Z,18.90
2023-04-04T22:45:18.106Z,15.43
2023-04-04T22:47:52.053Z,10.77
2023-04-04T22:50:26.713Z,15.80
2023-04-04T22:52:56.698Z,12.77
2023-04-04T22:55:28.166Z,14.20
2023-04-04T22:57:58.124Z,14.70
2023-04-04T23:00:27.831Z,8.77
2023-04-04T23:02:57.894Z,22.25
2023-04-04T23:05:31.749Z,13.32
2023-04-04T23:08:04.685Z,12.25
2023-04-04T23:10:35.867Z,15.43
2023-04-04T23:13:06.105Z,14.98
2023-04-04T23:15:38.863Z,8.38
2023-04-04T23:18:10.449Z,9.98
2023-04-04T23:20:40.620Z,13.63
2023-04-04T23:23:11.933Z,13.20
2023-04-04T23:25:41.808Z,11.15
2023-04-04T23:28:12.127Z,12.50
2023-04-04T23:30:42.810Z,12.35
2023-04-04T23:33:35.535Z,13.35
2023-04-04T23:36:25.420Z,14.45
2023-04-04T23:38:59.520Z,12.75
2023-04-04T23:41:29.490Z,10.05
2023-04-04T23:44:02.280Z,10.15
2023-04-04T23:46:36.457Z,9.82
2023-04-04T23:49:26.943Z,10.20
2023-04-04T23:51:56.976Z,10.73
2023-04-04T23:54:31.228Z,12.95
2023-04-04T23:57:01.935Z,12.20
